Time;durP1;ratioP1;P1;durP2;ratioP2;P2;SDS_P1;SDS_P2;PMS_P1;PMS_P2;Temp;Humidity;BMP_temperature;BMP_pressure;BME280_temperature;BME280_humidity;BME280_pressure;Samples;Min_cycle;Max_cycle;Signal;HPM_P1;HPM_P2
2022/04/08 00:02:03;;;;;;;4.05;2.15;;;;;;;9.86;69.53;94187.22;5104922;28;20020;-71
2022/04/08 00:04:30;;;;;;;6.93;2.33;;;;;;;9.79;69.86;94202.44;5105522;28;20115;-69
2022/04/08 00:06:56;;;;;;;2.90;2.05;;;;;;;9.82;69.81;94202.06;5104155;28;20023;-70
2022/04/08 00:09:22;;;;;;;4.35;2.30;;;;;;;9.83;69.46;94209.88;5105261;28;20032;-70
2022/04/08 00:11:47;;;;;;;3.50;2.10;;;;;;;9.82;69.46;94210.91;5104443;28;20016;-73
2022/04/08 00:14:12;;;;;;;3.53;2.10;;;;;;;9.83;69.02;94198.34;5105068;28;20028;-69
2022/04/08 00:16:38;;;;;;;3.40;2.20;;;;;;;9.83;69.06;94214.41;5104646;28;20529;-70
2022/04/08 00:19:04;;;;;;;5.10;2.30;;;;;;;9.85;69.23;94215.03;5105076;28;20020;-69
2022/04/08 00:21:29;;;;;;;4.60;2.38;;;;;;;9.83;69.17;94214.41;5105252;28;20024;-70
2022/04/08 00:23:55;;;;;;;5.82;2.65;;;;;;;9.80;68.79;94220.97;5104308;28;20024;-70
2022/04/08 00:26:20;;;;;;;8.50;3.00;;;;;;;9.79;69.08;94218.50;5104061;28;20470;-71
2022/04/08 00:28:46;;;;;;;4.07;3.00;;;;;;;9.79;69.55;94229.22;5104571;28;20040;-69
2022/04/08 00:31:12;;;;;;;4.15;3.13;;;;;;;9.79;69.34;94226.53;5108811;28;20019;-69
2022/04/08 00:33:37;;;;;;;3.72;3.10;;;;;;;9.72;70.22;94237.25;5108408;27;20043;-70
2022/04/08 00:36:03;;;;;;;5.10;3.65;;;;;;;9.76;70.52;94236.66;5108425;28;20051;-69
2022/04/08 00:38:28;;;;;;;4.45;3.38;;;;;;;9.75;70.18;94237.66;5108699;28;20027;-69
2022/04/08 00:40:54;;;;;;;6.03;3.35;;;;;;;9.69;70.65;94238.47;5108511;28;20023;-70
2022/04/08 00:43:19;;;;;;;3.85;2.78;;;;;;;9.70;70.68;94234.78;5108777;28;20028;-70
2022/04/08 00:45:45;;;;;;;5.03;3.58;;;;;;;9.70;70.75;94228.59;5107428;28;20034;-71
2022/04/08 00:48:10;;;;;;;4.78;3.20;;;;;;;9.73;69.82;94226.34;5108624;28;20024;-70
2022/04/08 00:50:40;;;;;;;3.95;2.85;;;;;;;9.69;69.45;94227.75;5107998;28;20035;-69
2022/04/08 00:53:06;;;;;;;4.53;2.70;;;;;;;9.66;69.10;94228.16;5108181;27;20678;-69
2022/04/08 00:55:32;;;;;;;4.00;2.70;;;;;;;9.63;69.00;94231.22;5108159;28;20032;-70
2022/04/08 00:58:00;;;;;;;3.58;3.00;;;;;;;9.57;68.79;94221.34;5107576;28;20020;-70
2022/04/08 01:00:26;;;;;;;3.45;2.60;;;;;;;9.53;68.61;94223.56;5108601;28;20455;-69
2022/04/08 01:02:51;;;;;;;3.50;2.63;;;;;;;9.54;68.98;94222.56;5105750;28;20559;-70
2022/04/08 01:05:17;;;;;;;4.35;2.55;;;;;;;9.48;68.66;94220.69;5108419;28;20027;-69
2022/04/08 01:07:42;;;;;;;4.90;2.55;;;;;;;9.41;68.44;94220.66;5107516;28;20054;-69
2022/04/08 01:10:08;;;;;;;3.25;2.45;;;;;;;9.33;68.94;94226.19;5106476;28;20028;-71
2022/04/08 01:12:33;;;;;;;4.53;2.30;;;;;;;9.24;68.49;94226.34;5107537;28;20107;-69
2022/04/08 01:14:59;;;;;;;3.30;2.20;;;;;;;9.15;68.76;94240.91;5107499;28;20493;-69
2022/04/08 01:17:27;;;;;;;3.67;2.33;;;;;;;9.15;68.53;94238.25;5108012;28;20042;-70
2022/04/08 01:19:53;;;;;;;3.63;2.40;;;;;;;9.08;68.95;94234.69;5106378;28;20022;-70
2022/04/08 01:22:19;;;;;;;2.38;1.98;;;;;;;9.08;68.13;94248.91;5106606;28;20036;-69
2022/04/08 01:24:46;;;;;;;4.70;2.47;;;;;;;9.10;67.09;94246.03;5106943;28;20099;-70
2022/04/08 01:27:12;;;;;;;4.35;2.20;;;;;;;9.16;66.55;94245.22;5105974;28;20055;-70
2022/04/08 01:29:37;;;;;;;2.95;2.00;;;;;;;9.14;67.18;94249.97;5088795;28;20028;-70
2022/04/08 01:32:03;;;;;;;3.42;2.05;;;;;;;9.12;66.96;94250.19;5105876;28;20039;-70
2022/04/08 01:34:28;;;;;;;4.03;2.35;;;;;;;9.15;67.15;94260.47;5106294;28;20055;-71
2022/04/08 01:36:54;;;;;;;3.22;2.33;;;;;;;9.11;66.44;94258.38;5107385;28;20019;-71
2022/04/08 01:39:19;;;;;;;4.95;2.17;;;;;;;9.05;67.01;94253.81;5106718;28;20020;-70
2022/04/08 01:41:45;;;;;;;4.13;2.58;;;;;;;9.03;67.22;94254.84;5105358;28;20447;-70
2022/04/08 01:44:10;;;;;;;5.30;2.60;;;;;;;9.06;66.88;94250.94;5107387;28;20477;-70
2022/04/08 01:46:35;;;;;;;4.45;2.20;;;;;;;9.10;66.51;94256.72;5106701;28;20028;-69
2022/04/08 01:49:01;;;;;;;4.03;2.40;;;;;;;9.12;65.78;94249.34;5107291;28;20076;-70
2022/04/08 01:51:26;;;;;;;5.22;2.30;;;;;;;9.11;65.33;94261.88;5106993;28;20073;-69
2022/04/08 01:53:52;;;;;;;4.07;2.00;;;;;;;9.11;65.57;94242.31;5107117;28;20020;-69
2022/04/08 01:56:36;;;;;;;3.78;2.40;;;;;;;9.11;65.52;94247.66;5106983;28;20016;-69
2022/04/08 01:59:01;;;;;;;4.47;2.17;;;;;;;9.08;65.77;94250.75;5106636;28;20619;-70
2022/04/08 02:01:27;;;;;;;4.03;2.35;;;;;;;8.98;65.66;94253.78;5107299;28;20028;-70
2022/04/08 02:03:52;;;;;;;4.15;2.33;;;;;;;8.94;65.99;94250.69;5106236;28;20024;-70
2022/04/08 02:06:18;;;;;;;5.78;2.53;;;;;;;8.79;66.23;94245.41;5107148;28;20028;-71
2022/04/08 02:08:43;;;;;;;6.22;2.50;;;;;;;8.82;66.38;94241.56;5106567;28;20394;-68
2022/04/08 02:11:08;;;;;;;3.85;2.83;;;;;;;8.71;66.39;94243.72;5106461;28;20739;-70
2022/04/08 02:13:34;;;;;;;5.53;2.70;;;;;;;8.59;67.15;94242.63;5106953;28;20011;-69
2022/04/08 02:15:59;;;;;;;3.47;2.38;;;;;;;8.64;66.96;94241.00;5106449;28;20417;-70
2022/04/08 02:18:25;;;;;;;4.80;2.55;;;;;;;8.74;66.11;94253.19;5106850;28;20024;-70
2022/04/08 02:20:51;;;;;;;4.75;2.30;;;;;;;8.82;65.58;94254.91;5106070;28;20028;-69
2022/04/08 02:23:16;;;;;;;3.70;2.50;;;;;;;8.77;66.31;94256.31;5105228;28;20035;-70
2022/04/08 02:25:42;;;;;;;5.00;2.33;;;;;;;8.78;65.57;94255.31;5104644;28;20076;-70
2022/04/08 02:28:07;;;;;;;3.65;2.50;;;;;;;8.72;66.22;94264.09;5104862;28;20051;-70
2022/04/08 02:30:33;;;;;;;3.10;2.20;;;;;;;8.62;66.31;94277.81;5106100;27;20035;-70
2022/04/08 02:33:01;;;;;;;4.65;2.55;;;;;;;8.60;66.66;94284.34;5106329;28;20023;-70
2022/04/08 02:35:29;;;;;;;3.35;2.35;;;;;;;8.40;67.10;94285.81;5106575;28;20036;-69
2022/04/08 02:37:54;;;;;;;5.00;2.92;;;;;;;8.28;67.41;94293.53;5104475;28;20081;-71
2022/04/08 02:40:19;;;;;;;4.25;2.70;;;;;;;8.23;67.44;94295.09;5105036;28;20544;-72
2022/04/08 02:42:45;;;;;;;5.03;2.85;;;;;;;8.26;67.58;94297.38;5105369;28;20505;-69
2022/04/08 02:45:10;;;;;;;5.13;2.95;;;;;;;8.22;67.37;94304.13;5106376;28;20024;-70
2022/04/08 02:47:40;;;;;;;3.58;2.50;;;;;;;8.20;67.46;94301.66;5105679;28;20769;-70
2022/04/08 02:50:06;;;;;;;3.28;2.22;;;;;;;8.18;67.40;94301.00;5106028;28;20020;-71
2022/04/08 02:52:31;;;;;;;2.88;2.25;;;;;;;8.15;67.89;94304.91;5105718;28;20422;-70
2022/04/08 02:54:57;;;;;;;6.65;2.70;;;;;;;8.18;67.18;94319.69;5105543;28;20027;-70
2022/04/08 02:57:22;;;;;;;4.45;2.38;;;;;;;8.13;67.36;94330.97;5106013;28;20020;-70
2022/04/08 02:59:50;;;;;;;3.38;2.33;;;;;;;8.15;66.96;94338.78;5105275;28;20482;-70
2022/04/08 03:02:15;;;;;;;3.97;2.30;;;;;;;8.16;67.08;94332.41;5106134;28;20061;-70
2022/04/08 03:04:41;;;;;;;5.65;2.67;;;;;;;8.13;67.58;94338.13;5105350;28;20036;-69
2022/04/08 03:07:06;;;;;;;3.15;2.55;;;;;;;8.16;67.88;94335.09;5105789;28;20036;-70
2022/04/08 03:09:32;;;;;;;4.63;2.70;;;;;;;8.16;67.77;94343.94;5105430;28;20475;-70
2022/04/08 03:11:57;;;;;;;3.25;2.40;;;;;;;8.14;67.60;94350.50;5105496;28;20030;-70
2022/04/08 03:14:22;;;;;;;4.93;2.13;;;;;;;8.15;67.08;94341.44;5106148;28;20035;-70
2022/04/08 03:16:48;;;;;;;2.75;2.13;;;;;;;8.15;67.34;94352.13;5105205;28;20023;-70
2022/04/08 03:19:13;;;;;;;5.10;2.28;;;;;;;8.10;67.26;94349.19;5104558;28;20031;-71
2022/04/08 03:21:39;;;;;;;3.25;2.40;;;;;;;8.13;67.19;94365.69;5104775;28;20040;-70
2022/04/08 03:24:05;;;;;;;4.22;2.58;;;;;;;8.14;67.38;94366.50;5105631;28;20101;-70
2022/04/08 03:26:30;;;;;;;3.53;2.70;;;;;;;8.19;67.44;94363.28;5104985;28;20104;-70
2022/04/08 03:28:56;;;;;;;4.80;2.95;;;;;;;8.20;68.20;94368.44;5105026;28;20522;-70
2022/04/08 03:31:21;;;;;;;5.93;3.42;;;;;;;8.10;68.35;94365.22;5105777;28;20406;-70
2022/04/08 03:33:46;;;;;;;6.15;3.80;;;;;;;8.13;68.21;94370.19;5104845;28;20066;-69
2022/04/08 03:36:12;;;;;;;6.25;3.40;;;;;;;8.07;68.47;94376.28;5105949;28;20089;-69
2022/04/08 03:38:37;;;;;;;4.78;3.67;;;;;;;8.04;68.44;94383.63;5104486;28;20475;-70
2022/04/08 03:41:03;;;;;;;4.32;3.10;;;;;;;7.97;68.10;94382.75;5105747;28;20019;-69
2022/04/08 03:43:28;;;;;;;5.78;3.47;;;;;;;7.93;68.13;94392.16;5104673;28;20470;-71
2022/04/08 03:45:54;;;;;;;5.00;2.92;;;;;;;7.88;67.90;94400.69;5105596;28;20016;-69
2022/04/08 03:48:19;;;;;;;5.18;2.65;;;;;;;7.87;67.49;94398.22;5104928;28;20084;-69
2022/04/08 03:50:44;;;;;;;7.18;3.33;;;;;;;7.81;67.54;94406.97;5104875;28;20569;-69
2022/04/08 03:53:12;;;;;;;5.90;3.38;;;;;;;7.74;67.54;94415.72;5105526;28;20031;-69
2022/04/08 03:55:38;;;;;;;6.57;3.92;;;;;;;7.70;67.59;94418.94;5104616;28;20035;-69
2022/04/08 03:58:03;;;;;;;5.10;3.35;;;;;;;7.73;67.30;94416.75;5104253;28;20028;-70
2022/04/08 04:00:29;;;;;;;8.15;3.75;;;;;;;7.74;67.20;94418.38;5104397;28;20031;-70
2022/04/08 04:02:54;;;;;;;5.00;3.55;;;;;;;7.75;67.53;94422.72;5106045;28;20055;-68
2022/04/08 04:05:20;;;;;;;4.15;3.30;;;;;;;7.74;67.85;94420.22;5108752;28;20028;-70
2022/04/08 04:07:45;;;;;;;4.43;2.80;;;;;;;7.75;67.78;94421.91;5109078;28;20034;-70
2022/04/08 04:10:11;;;;;;;3.38;2.78;;;;;;;7.77;67.69;94426.03;5109566;28;20019;-69
2022/04/08 04:12:38;;;;;;;5.05;3.20;;;;;;;7.77;67.88;94428.69;5108977;27;20059;-70
2022/04/08 04:15:04;;;;;;;4.85;2.83;;;;;;;7.84;67.85;94438.63;5109265;28;20145;-71
2022/04/08 04:17:30;;;;;;;7.60;3.80;;;;;;;7.84;68.29;94435.97;5108318;28;20417;-70
2022/04/08 04:19:55;;;;;;;7.03;3.72;;;;;;;7.90;68.22;94444.06;5108891;28;20035;-69
2022/04/08 04:22:21;;;;;;;6.80;3.67;;;;;;;7.97;68.41;94446.84;5108341;28;20028;-70
2022/04/08 04:24:46;;;;;;;6.28;3.00;;;;;;;8.06;68.09;94449.41;5108748;28;20024;-70
2022/04/08 04:27:12;;;;;;;8.85;3.92;;;;;;;8.21;67.47;94460.06;5108477;28;20016;-69
2022/04/08 04:29:37;;;;;;;4.40;2.80;;;;;;;8.27;66.77;94460.16;5109432;28;20031;-70
2022/04/08 04:32:05;;;;;;;5.00;2.83;;;;;;;8.42;66.70;94459.28;5108597;28;20470;-71
2022/04/08 04:34:32;;;;;;;3.92;3.25;;;;;;;8.59;65.78;94459.09;5108600;27;20065;-69
2022/04/08 04:36:58;;;;;;;6.63;3.30;;;;;;;8.77;64.74;94464.84;5108963;28;20027;-69
2022/04/08 04:39:23;;;;;;;4.93;3.00;;;;;;;8.87;64.72;94469.88;5107914;28;20911;-70
2022/04/08 04:41:49;;;;;;;4.72;3.13;;;;;;;8.93;64.64;94472.81;5108610;28;20495;-70
2022/04/08 04:44:14;;;;;;;4.95;3.20;;;;;;;9.03;63.90;94465.28;5108055;28;20080;-70
2022/04/08 04:46:39;;;;;;;5.60;3.17;;;;;;;9.18;63.85;94470.59;5108472;28;20443;-70
2022/04/08 04:49:05;;;;;;;5.63;3.55;;;;;;;9.38;62.92;94483.31;5108076;28;20519;-70
2022/04/08 04:51:30;;;;;;;6.85;3.70;;;;;;;9.52;62.81;94484.25;5108180;28;20020;-71
2022/04/08 04:53:58;;;;;;;4.45;3.65;;;;;;;9.72;62.18;94495.09;5108556;28;20050;-69
2022/04/08 04:56:24;;;;;;;4.63;3.33;;;;;;;9.85;61.76;94509.63;5107806;28;20023;-69
2022/04/08 04:58:49;;;;;;;3.97;3.40;;;;;;;10.04;61.40;94507.28;5109353;28;20031;-70
2022/04/08 05:01:15;;;;;;;7.65;3.60;;;;;;;10.17;60.36;94507.38;5107258;28;20578;-70
2022/04/08 05:03:40;;;;;;;6.57;3.67;;;;;;;10.23;60.24;94513.78;5108082;28;20032;-71
2022/04/08 05:06:05;;;;;;;4.30;3.45;;;;;;;10.31;60.11;94518.13;5107544;28;20023;-70
2022/04/08 05:08:31;;;;;;;6.78;4.53;;;;;;;10.45;60.03;94525.22;5107951;28;20020;-70
2022/04/08 05:10:58;;;;;;;5.45;3.63;;;;;;;10.52;59.94;94522.63;5108102;28;20027;-71
2022/04/08 05:13:23;;;;;;;5.38;3.38;;;;;;;10.65;60.02;94524.53;5107686;28;20031;-71
2022/04/08 05:15:48;;;;;;;7.03;3.50;;;;;;;10.74;59.87;94526.00;5106877;28;20023;-69
2022/04/08 05:18:14;;;;;;;5.97;3.00;;;;;;;10.90;59.11;94532.03;5106754;28;20028;-70
2022/04/08 05:20:39;;;;;;;3.00;2.33;;;;;;;11.04;58.85;94540.13;5108145;28;20023;-70
2022/04/08 05:23:05;;;;;;;7.20;2.70;;;;;;;11.23;58.42;94547.41;5107220;28;20027;-70
2022/04/08 05:25:30;;;;;;;4.53;2.50;;;;;;;11.38;58.27;94543.72;5107609;28;20028;-70
2022/04/08 05:27:56;;;;;;;6.35;2.47;;;;;;;11.57;57.92;94549.31;5107495;28;20469;-70
2022/04/08 05:30:21;;;;;;;4.03;2.60;;;;;;;11.65;57.36;94551.81;5105748;28;20046;-70
2022/04/08 05:32:47;;;;;;;6.25;2.45;;;;;;;11.80;56.97;94548.91;5107928;28;20051;-70
2022/04/08 05:35:14;;;;;;;4.00;2.25;;;;;;;11.95;56.92;94547.88;5107058;28;20444;-70
2022/04/08 05:37:46;;;;;;;3.72;2.22;;;;;;;12.11;57.10;94542.13;5108117;28;20042;-69
2022/04/08 05:40:14;;;;;;;5.22;2.40;;;;;;;12.26;56.76;94549.13;5105325;28;20028;-69
2022/04/08 05:42:40;;;;;;;4.50;2.40;;;;;;;12.49;55.88;94554.03;5107465;28;20034;-70
2022/04/08 05:45:09;;;;;;;5.15;2.40;;;;;;;12.67;55.28;94563.28;5106998;28;20031;-70
2022/04/08 05:47:35;;;;;;;6.13;2.03;;;;;;;12.82;54.40;94563.03;5107049;28;20023;-71
2022/04/08 05:50:01;;;;;;;5.45;2.40;;;;;;;12.91;54.39;94552.06;5107551;28;20152;-71
2022/04/08 05:52:26;;;;;;;2.95;1.85;;;;;;;13.07;53.19;94559.63;5106345;28;20072;-71
2022/04/08 05:54:52;;;;;;;3.72;2.25;;;;;;;13.13;53.91;94557.94;5107462;28;20489;-69
2022/04/08 05:57:19;;;;;;;3.45;2.45;;;;;;;13.30;53.35;94554.78;5106191;28;20027;-69
2022/04/08 05:59:45;;;;;;;4.18;1.95;;;;;;;13.47;52.66;94558.59;5107185;28;20555;-69
2022/04/08 06:02:11;;;;;;;16.45;3.55;;;;;;;13.57;52.25;94550.03;5106265;28;20032;-69
2022/04/08 06:04:36;;;;;;;3.17;1.88;;;;;;;13.71;51.97;94553.50;5106559;28;20113;-68
2022/04/08 06:07:02;;;;;;;2.92;1.50;;;;;;;13.84;51.86;94559.81;5107130;28;20085;-71
2022/04/08 06:09:27;;;;;;;2.78;1.55;;;;;;;13.94;52.19;94546.69;5106259;28;20240;-71
2022/04/08 06:11:53;;;;;;;3.67;1.70;;;;;;;14.01;52.05;94543.91;5107053;28;20406;-69
2022/04/08 06:14:18;;;;;;;5.78;1.90;;;;;;;14.11;51.67;94547.97;5105785;28;20027;-69
2022/04/08 06:16:43;;;;;;;5.53;2.10;;;;;;;14.21;51.54;94541.06;5106776;28;20027;-69
2022/04/08 06:19:09;;;;;;;4.32;1.85;;;;;;;14.35;51.58;94554.41;5106181;28;20073;-71
2022/04/08 06:21:34;;;;;;;4.10;2.03;;;;;;;14.40;52.00;94542.94;5106243;28;20027;-71
2022/04/08 06:24:00;;;;;;;4.43;1.80;;;;;;;14.57;52.27;94552.09;5106426;28;20081;-69
2022/04/08 06:26:25;;;;;;;5.20;2.33;;;;;;;14.70;51.65;94564.63;5105456;28;20050;-69
2022/04/08 06:28:50;;;;;;;4.70;1.60;;;;;;;14.83;51.14;94561.00;5106434;28;20444;-69
2022/04/08 06:31:16;;;;;;;3.17;1.58;;;;;;;15.00;50.89;94557.69;5105604;28;20108;-70
2022/04/08 06:33:42;;;;;;;2.60;1.38;;;;;;;15.08;49.90;94557.38;5106563;28;20107;-70
2022/04/08 06:36:08;;;;;;;2.85;1.70;;;;;;;15.15;49.59;94559.19;5105763;28;20027;-70
2022/04/08 06:38:33;;;;;;;3.85;1.80;;;;;;;15.24;48.90;94556.97;5106202;28;20027;-70
2022/04/08 06:40:58;;;;;;;2.58;1.52;;;;;;;15.26;49.20;94560.28;5105842;28;20023;-70
2022/04/08 06:43:24;;;;;;;2.05;1.40;;;;;;;15.29;49.12;94554.41;5105678;28;20027;-70
2022/04/08 06:45:49;;;;;;;3.00;1.60;;;;;;;15.24;49.34;94557.81;5106104;28;20061;-70
2022/04/08 06:48:15;;;;;;;3.63;1.50;;;;;;;15.29;48.32;94554.41;5106145;28;20375;-70
2022/04/08 06:50:41;;;;;;;3.40;1.60;;;;;;;15.39;47.38;94564.69;5106154;28;20027;-69
2022/04/08 06:53:06;;;;;;;3.55;1.42;;;;;;;15.47;46.52;94567.06;5105346;28;20031;-70
2022/04/08 06:55:32;;;;;;;3.97;2.25;;;;;;;15.63;46.88;94565.59;5105686;28;20379;-70
2022/04/08 06:58:02;;;;;;;2.35;1.40;;;;;;;15.79;46.17;94574.09;5105206;28;20080;-70
2022/04/08 07:00:28;;;;;;;2.28;1.40;;;;;;;15.89;45.31;94568.97;5105543;28;20032;-69
2022/04/08 07:02:53;;;;;;;3.53;1.60;;;;;;;15.89;45.67;94570.81;5105555;28;20493;-71
2022/04/08 07:05:18;;;;;;;4.68;1.50;;;;;;;15.90;45.98;94581.41;5105352;28;20077;-70
2022/04/08 07:07:46;;;;;;;2.63;1.50;;;;;;;15.85;45.28;94578.56;5105463;28;20024;-70
2022/04/08 07:10:12;;;;;;;3.88;1.60;;;;;;;15.87;45.85;94576.47;5105216;28;20055;-70
2022/04/08 07:12:38;;;;;;;3.35;1.50;;;;;;;15.93;45.29;94582.81;5105810;28;20107;-70
2022/04/08 07:15:04;;;;;;;3.30;1.40;;;;;;;15.95;45.49;94583.41;5104778;28;20024;-71
2022/04/08 07:17:31;;;;;;;3.75;1.42;;;;;;;15.90;45.52;94596.78;5105494;28;20031;-69
2022/04/08 07:19:57;;;;;;;2.42;1.40;;;;;;;15.94;45.66;94601.50;5105393;28;20110;-70
2022/04/08 07:22:22;;;;;;;5.93;1.55;;;;;;;15.99;45.37;94603.53;5105416;28;20026;-71
2022/04/08 07:24:49;;;;;;;2.92;1.50;;;;;;;15.94;46.23;94598.81;5105338;28;20069;-70
2022/04/08 07:27:14;;;;;;;2.75;1.50;;;;;;;16.02;45.56;94611.22;5104976;28;20027;-71
2022/04/08 07:29:40;;;;;;;2.45;1.55;;;;;;;16.06;45.23;94608.84;5105630;28;20424;-70
2022/04/08 07:32:05;;;;;;;3.95;1.52;;;;;;;16.09;45.62;94626.53;5104688;28;20027;-70
2022/04/08 07:34:31;;;;;;;8.90;1.70;;;;;;;16.08;45.42;94620.28;5105594;28;20020;-71
2022/04/08 07:36:56;;;;;;;3.58;1.70;;;;;;;16.10;45.25;94618.19;5104175;28;20024;-70
2022/04/08 07:39:22;;;;;;;3.13;1.52;;;;;;;16.11;45.30;94618.97;5104731;28;20039;-70
2022/04/08 07:41:47;;;;;;;4.55;1.90;;;;;;;16.15;45.02;94622.88;5104875;28;20549;-70
2022/04/08 07:44:12;;;;;;;5.22;1.67;;;;;;;16.16;45.49;94621.81;5104888;28;20030;-72
2022/04/08 07:46:38;;;;;;;2.25;1.40;;;;;;;16.18;45.81;94630.53;5105183;28;20020;-71
2022/04/08 07:49:03;;;;;;;6.20;1.77;;;;;;;16.23;45.88;94638.78;5104625;28;20098;-71
2022/04/08 07:51:29;;;;;;;4.25;1.80;;;;;;;16.29;45.70;94637.84;5105504;28;20470;-70
2022/04/08 07:53:54;;;;;;;4.53;1.60;;;;;;;16.36;44.74;94642.34;5103886;28;20456;-70
2022/04/08 07:56:20;;;;;;;4.45;1.75;;;;;;;16.15;39.92;94658.84;5105309;28;20035;-70
2022/04/08 07:58:47;;;;;;;2.15;1.50;;;;;;;16.15;39.76;94648.03;5104412;28;20034;-70
2022/04/08 08:01:13;;;;;;;3.53;1.77;;;;;;;16.25;39.69;94642.06;5105291;28;20068;-70
2022/04/08 08:03:38;;;;;;;3.60;1.70;;;;;;;16.39;39.38;94637.28;5104879;28;20028;-70
2022/04/08 08:06:04;;;;;;;2.13;1.42;;;;;;;16.39;39.57;94642.69;5104452;28;20032;-70
2022/04/08 08:08:29;;;;;;;4.53;1.35;;;;;;;16.47;39.68;94644.22;5105319;28;20039;-71
2022/04/08 08:10:55;;;;;;;1.80;1.40;;;;;;;16.67;39.91;94637.63;5104109;28;20100;-70
2022/04/08 08:13:21;;;;;;;2.42;1.48;;;;;;;16.63;39.61;94648.13;5105336;28;20019;-70
2022/04/08 08:15:46;;;;;;;2.30;1.60;;;;;;;16.79;38.71;94640.34;5102723;28;20027;-69
2022/04/08 08:18:12;;;;;;;2.30;1.60;;;;;;;16.78;38.71;94638.72;5104771;28;20027;-71
2022/04/08 08:20:37;;;;;;;2.15;1.50;;;;;;;16.73;38.53;94646.72;5103129;28;20106;-70
2022/04/08 08:23:03;;;;;;;5.30;1.88;;;;;;;16.88;37.92;94644.34;5104529;28;20621;-71
2022/04/08 08:25:29;;;;;;;1.95;1.40;;;;;;;16.92;38.26;94644.72;5104853;28;20405;-71
2022/04/08 08:27:59;;;;;;;2.13;1.33;;;;;;;17.03;37.19;94640.34;5102670;28;20047;-70
2022/04/08 08:30:24;;;;;;;2.90;1.52;;;;;;;17.02;38.50;94638.69;5105457;28;20047;-70
2022/04/08 08:32:50;;;;;;;3.25;1.60;;;;;;;17.12;38.79;94646.25;5103759;28;20466;-70
2022/04/08 08:35:19;;;;;;;3.50;1.80;;;;;;;17.17;38.48;94641.75;5103517;28;20065;-70
2022/04/08 08:37:45;;;;;;;3.47;1.60;;;;;;;17.11;38.36;94653.53;5104633;28;20057;-70
2022/04/08 08:40:11;;;;;;;2.80;1.73;;;;;;;17.16;38.62;94644.72;5104448;28;20027;-69
2022/04/08 08:42:37;;;;;;;3.42;1.70;;;;;;;17.16;39.93;94642.84;5105319;28;20019;-70
2022/04/08 08:45:04;;;;;;;3.33;1.50;;;;;;;17.22;40.85;94651.88;5104628;28;20034;-69
2022/04/08 08:47:30;;;;;;;3.65;1.60;;;;;;;17.21;40.48;94652.13;5105048;28;20031;-70
2022/04/08 08:49:55;;;;;;;3.08;1.58;;;;;;;17.16;40.68;94659.09;5105776;28;20027;-71
2022/04/08 08:52:21;;;;;;;2.58;1.58;;;;;;;17.12;41.44;94660.59;5108555;28;20080;-70
2022/04/08 08:54:46;;;;;;;3.03;1.67;;;;;;;17.15;41.80;94659.31;5106564;28;20038;-70
2022/04/08 08:57:17;;;;;;;5.03;1.88;;;;;;;17.27;40.58;94662.00;5107887;28;20409;-70
2022/04/08 08:59:44;;;;;;;3.03;1.80;;;;;;;17.22;40.89;94667.34;5106918;28;20070;-71
2022/04/08 09:02:10;;;;;;;4.32;1.70;;;;;;;17.30;42.00;94666.94;5107657;27;20024;-71
2022/04/08 09:04:42;;;;;;;3.17;1.73;;;;;;;17.34;42.65;94665.41;5108071;28;20034;-70
2022/04/08 09:07:09;;;;;;;2.55;1.70;;;;;;;17.45;41.87;94663.75;5107302;28;20092;-68
2022/04/08 09:09:35;;;;;;;2.38;1.63;;;;;;;17.49;41.05;94661.38;5108384;28;20028;-70
2022/04/08 09:12:14;;;;;;;1.98;1.58;;;;;;;17.54;40.52;94658.75;5106340;28;20016;-70
2022/04/08 09:14:44;;;;;;;4.15;1.50;;;;;;;17.57;41.48;94655.59;5108513;28;20717;-70
2022/04/08 09:17:09;;;;;;;4.18;1.80;;;;;;;17.61;41.43;94656.75;5107849;28;20610;-70
2022/04/08 09:19:34;;;;;;;3.25;1.80;;;;;;;17.68;40.73;94662.03;5107814;28;20031;-70
2022/04/08 09:22:01;;;;;;;3.83;1.45;;;;;;;17.70;41.12;94651.75;5108261;28;20028;-70
2022/04/08 09:24:27;;;;;;;4.55;1.67;;;;;;;17.76;40.13;94661.66;5107263;28;20035;-70
2022/04/08 09:26:56;;;;;;;4.10;1.60;;;;;;;17.84;40.39;94657.72;5108170;28;20028;-70
2022/04/08 09:29:22;;;;;;;2.35;1.60;;;;;;;17.82;40.09;94654.41;5106499;28;20314;-68
2022/04/08 09:31:50;;;;;;;2.67;1.52;;;;;;;17.89;39.80;94655.09;5107751;28;20111;-71
2022/04/08 09:34:16;;;;;;;4.57;1.60;;;;;;;17.95;39.43;94652.47;5107487;28;20398;-70
2022/04/08 09:36:43;;;;;;;1.88;1.33;;;;;;;17.97;39.18;94642.22;5107594;28;20030;-69
2022/04/08 09:39:10;;;;;;;4.28;1.70;;;;;;;17.95;39.66;94638.91;5107788;28;20024;-70
2022/04/08 09:41:43;;;;;;;3.60;2.10;;;;;;;17.93;40.27;94644.59;5107084;28;20425;-71
2022/04/08 09:44:09;;;;;;;4.70;1.58;;;;;;;17.96;40.20;94640.59;5107496;28;20110;-70
2022/04/08 09:46:36;;;;;;;3.10;1.42;;;;;;;17.97;38.81;94634.91;5106719;28;20019;-70
2022/04/08 09:49:02;;;;;;;4.65;1.50;;;;;;;18.03;40.34;94635.81;5107423;28;20961;-70
2022/04/08 09:51:27;;;;;;;2.80;1.30;;;;;;;18.13;40.15;94632.50;5107000;28;20020;-70
2022/04/08 09:53:57;;;;;;;4.53;1.50;;;;;;;18.16;39.42;94638.25;5107253;28;20073;-71
2022/04/08 09:56:24;;;;;;;4.35;1.60;;;;;;;18.18;39.94;94631.75;5107377;28;20027;-70
2022/04/08 09:59:22;;;;;;;7.65;1.77;;;;;;;18.24;39.42;94634.31;5106706;28;20054;-69
2022/04/08 10:01:48;;;;;;;5.85;2.22;;;;;;;18.31;39.15;94633.34;5088466;28;20120;-71
2022/04/08 10:04:13;;;;;;;7.03;1.45;;;;;;;18.35;38.90;94632.59;5105043;28;20027;-69
2022/04/08 10:06:40;;;;;;;4.70;1.50;;;;;;;18.32;38.38;94622.22;5106991;28;20057;-71
2022/04/08 10:09:07;;;;;;;4.15;1.40;;;;;;;18.31;39.32;94617.88;5107167;28;20057;-70
2022/04/08 10:12:07;;;;;;;3.55;1.65;;;;;;;18.40;39.03;94613.69;5106357;28;20042;-69
2022/04/08 10:14:51;;;;;;;3.78;1.55;;;;;;;18.45;38.48;94615.66;5105636;28;20063;-71
2022/04/08 10:17:16;;;;;;;3.88;1.50;;;;;;;18.49;39.18;94600.50;5106508;28;20032;-70
2022/04/08 10:19:41;;;;;;;3.00;1.30;;;;;;;18.57;38.92;94610.13;5105578;28;20020;-69
2022/04/08 10:22:17;;;;;;;2.55;1.48;;;;;;;18.60;38.01;94611.53;5106831;28;20028;-70
2022/04/08 10:24:53;;;;;;;4.75;1.52;;;;;;;18.59;37.44;94610.69;5106105;28;20443;-70
2022/04/08 10:27:30;;;;;;;5.60;1.92;;;;;;;18.54;37.58;94613.34;5106936;28;20031;-70
2022/04/08 10:29:56;;;;;;;5.97;1.80;;;;;;;18.49;37.98;94605.94;5105957;28;20533;-70
2022/04/08 10:32:21;;;;;;;4.68;1.60;;;;;;;18.45;38.05;94598.53;5106376;28;20027;-69
2022/04/08 10:34:47;;;;;;;3.50;1.70;;;;;;;18.40;38.96;94602.81;5106218;28;20035;-70
2022/04/08 10:37:16;;;;;;;5.20;1.60;;;;;;;18.45;37.35;94598.53;5106647;28;20027;-70
2022/04/08 10:39:42;;;;;;;4.45;1.52;;;;;;;18.50;38.05;94602.16;5106714;28;20027;-70
2022/04/08 10:42:19;;;;;;;2.65;1.08;;;;;;;18.56;35.38;94600.34;5104591;28;20339;-70
2022/04/08 10:44:44;;;;;;;2.90;1.52;;;;;;;18.63;37.64;94600.16;5105079;28;20035;-70
2022/04/08 10:47:14;;;;;;;6.13;1.65;;;;;;;18.69;35.43;94590.19;5105743;28;20406;-70
2022/04/08 10:49:50;;;;;;;2.55;1.27;;;;;;;18.72;34.24;94592.41;5106313;28;20024;-70
2022/04/08 10:52:22;;;;;;;2.20;1.10;;;;;;;18.76;33.61;94590.84;5106263;28;20164;-70
2022/04/08 10:54:48;;;;;;;3.35;1.30;;;;;;;18.75;33.23;94592.75;5105709;28;20049;-69
2022/04/08 10:57:14;;;;;;;3.10;1.30;;;;;;;18.76;33.82;94580.00;5106499;28;20034;-71
2022/04/08 10:59:39;;;;;;;3.03;1.30;;;;;;;18.86;35.12;94568.44;5105114;28;20406;-70
2022/04/08 11:02:11;;;;;;;2.85;1.50;;;;;;;18.99;35.70;94570.78;5104797;28;20410;-70
2022/04/08 11:04:36;;;;;;;3.45;1.30;;;;;;;19.12;33.35;94566.91;5105325;28;20026;-69
2022/04/08 11:07:04;;;;;;;2.78;1.20;;;;;;;19.17;33.41;94571.59;5106083;28;20027;-70
2022/04/08 11:09:29;;;;;;;5.20;1.30;;;;;;;19.26;32.17;94582.84;5105794;28;20030;-70
2022/04/08 11:11:55;;;;;;;3.10;1.50;;;;;;;19.31;33.16;94577.47;5087514;28;20039;-70
2022/04/08 11:14:21;;;;;;;3.17;1.27;;;;;;;19.39;33.87;94574.28;5106580;28;20061;-71
2022/04/08 11:16:47;;;;;;;2.80;1.33;;;;;;;19.54;33.23;94570.09;5105003;28;20084;-71
2022/04/08 11:19:12;;;;;;;1.98;1.25;;;;;;;19.66;32.53;94569.13;5106174;27;20030;-70
2022/04/08 11:21:39;;;;;;;4.32;1.55;;;;;;;19.71;32.69;94559.16;5105107;28;20023;-70
2022/04/08 11:24:09;;;;;;;3.97;1.60;;;;;;;19.82;32.53;94576.38;5105936;28;20050;-70
2022/04/08 11:26:48;;;;;;;2.40;1.40;;;;;;;19.87;31.87;94573.72;5105188;28;20088;-70
2022/04/08 11:29:17;;;;;;;3.75;1.30;;;;;;;19.97;32.69;94572.19;5105870;28;20069;-70
2022/04/08 11:31:47;;;;;;;2.17;1.10;;;;;;;20.04;31.43;94567.34;5106104;28;20085;-70
2022/04/08 11:34:15;;;;;;;3.05;1.73;;;;;;;20.13;31.52;94565.81;5105091;28;20068;-69